Seabourn Legend — C6FR6 — position and weather

sailwx.info

Track history (hours):
 
Tides and Currents Weather Stations Pressure Air Temp Water Temp Dewpoint Dewpoint Depression Visibility Wind Speed Wind Dir Waves Ship Positions

Seabourn Legend

Operator: Cunard Seabourn

Last reported at 2019-Jul-22 03:44 UTC. Time now 2019-Jul-22 06:23 UTC.
Position N 55°10' W 131°11'.

Length 135 m; draft 5.6 m.

Type: Passenger vessel. MMSI: 311085000.

Date/timePositionNaut miles runAvg speedWind from/ knotsBaromVisibWave heightAir tempDewpointWater temp
2019-Jul-22 03:44N 55°10' W 131°11'16 0.9
2019-Jul-21 09:12N 54°55' W 131°04'1 5.5
2019-Jul-21 09:00N 54°55' W 131°06'2510.0
2019-Jul-21 06:28N 55°17' W 131°30'25 1.9
2019-Jul-20 17:13N 54°55' W 131°07'210.1
2019-Jul-20 16:59N 54°53' W 131°07'5 9.8
2019-Jul-20 16:27N 54°48' W 131°09'6 9.2
2019-Jul-20 15:50N 54°43' W 131°13'410.5
2019-Jul-20 15:30N 54°40' W 131°15'611.6
2019-Jul-20 14:58N 54°33' W 131°15'612.0
2019-Jul-20 14:30N 54°28' W 131°13'612.8
2019-Jul-20 14:00N 54°22' W 131°10'713.2
2019-Jul-20 13:30N 54°15' W 131°08'713.0
2019-Jul-20 13:00N 54°10' W 131°03'713.2
2019-Jul-20 12:30N 54°03' W 131°01'713.7
2019-Jul-20 12:00N 53°56' W 131°01'714.0
2019-Jul-20 11:30N 53°49' W 131°01'713.9
2019-Jul-20 11:01N 53°42' W 131°01'713.8
2019-Jul-20 10:30N 53°35' W 131°00'713.9
2019-Jul-20 10:00N 53°29' W 130°60'1113.6
2019-Jul-20 09:13N 53°18' W 130°53'8613.7
2019-Jul-20 02:59N 52°08' W 129°34'712.4
2019-Jul-20 02:27N 52°03' W 129°27'613.0
2019-Jul-20 02:00N 51°59' W 129°20'612.7
2019-Jul-20 01:30N 51°54' W 129°13'612.2
2019-Jul-20 01:00N 51°50' W 129°06'612.1
2019-Jul-20 00:30N 51°45' W 128°59'612.0
2019-Jul-20 00:00N 51°40' W 128°53'612.1
2019-Jul-19 23:30N 51°35' W 128°52'612.3
2019-Jul-19 23:00N 51°28' W 128°51'612.1
2019-Jul-19 22:31N 51°24' W 128°44'612.6
2019-Jul-19 22:00N 51°21' W 128°36'612.7
2019-Jul-19 21:30N 51°17' W 128°28'612.3
2019-Jul-19 21:00N 51°13' W 128°20'612.2
2019-Jul-19 20:31N 51°10' W 128°12'612.0
2019-Jul-19 20:00N 51°06' W 128°04'612.1
2019-Jul-19 19:30N 51°03' W 127°56'612.6
2019-Jul-19 19:00N 50°60' W 127°48'5 9.6
2019-Jul-19 18:31N 50°56' W 127°42'7 9.0
2019-Jul-19 17:47N 50°52' W 127°34'2 8.7
2019-Jul-19 17:30N 50°51' W 127°31'15 9.2
2019-Jul-19 15:53N 50°45' W 127°09'3 9.2
2019-Jul-19 15:31N 50°44' W 127°04'5 9.1
2019-Jul-19 15:01N 50°42' W 126°57'612.3
2019-Jul-19 14:30N 50°39' W 126°49'4212.1
2019-Jul-19 11:01N 50°23' W 125°48'1312.3
2019-Jul-19 09:57N 50°20' W 125°27'511.9
2019-Jul-19 09:30N 50°16' W 125°24'713.9
2019-Jul-19 09:00N 50°09' W 125°21'5 9.8
2019-Jul-19 08:30N 50°05' W 125°17'510.1
2019-Jul-19 08:00N 50°01' W 125°13'5 9.9
2019-Jul-19 07:30N 49°57' W 125°08'510.4
2019-Jul-19 07:00N 49°53' W 125°02'611.7
2019-Jul-19 06:30N 49°49' W 124°56'612.9
2019-Jul-19 06:00N 49°45' W 124°49'713.2
2019-Jul-19 05:30N 49°40' W 124°41'713.1
2019-Jul-19 04:59N 49°35' W 124°34'612.7
2019-Jul-19 04:30N 49°31' W 124°27'612.9
2019-Jul-19 04:00N 49°26' W 124°20'612.5
2019-Jul-19 03:29N 49°24' W 124°11'612.6
2019-Jul-19 03:00N 49°23' W 124°02'612.1
2019-Jul-19 02:30N 49°22' W 123°53'612.1
2019-Jul-19 02:00N 49°21' W 123°44'612.5
2019-Jul-19 01:30N 49°20' W 123°34'713.2
2019-Jul-19 01:00N 49°19' W 123°24'612.8
2019-Jul-19 00:30N 49°19' W 123°14'510.6
2019-Jul-19 00:01N 49°18' W 123°06'1 1.2
2019-Jul-18 23:23N 49°17' W 123°06'0 0.0
2019-Jul-18 22:59N 49°17' W 123°06'0 0.0
2019-Jul-18 22:29N 49°17' W 123°06'0 0.0
2019-Jul-18 21:59N 49°17' W 123°06'0 0.0
2019-Jul-18 21:29N 49°17' W 123°06'0 0.0
2019-Jul-18 20:59N 49°17' W 123°06'0 0.0
2019-Jul-18 20:29N 49°17' W 123°06'0 0.0
2019-Jul-18 19:59N 49°17' W 123°06'0 0.0
2019-Jul-18 19:29N 49°17' W 123°06'0 0.0
2019-Jul-18 18:59N 49°17' W 123°06'0 0.0
2019-Jul-18 18:29N 49°17' W 123°06'0 0.0
2019-Jul-18 17:59N 49°17' W 123°06'0 0.0
2019-Jul-18 17:29N 49°17' W 123°06'0 0.0
2019-Jul-18 16:59N 49°17' W 123°06'0 0.0
2019-Jul-18 16:29N 49°17' W 123°06'0 0.0
2019-Jul-18 15:59N 49°17' W 123°06'0 0.0
2019-Jul-18 15:29N 49°17' W 123°06'0 0.0
2019-Jul-18 15:00N 49°17' W 123°06'0 0.2
2019-Jul-18 14:30N 49°17' W 123°06'2 3.2
2019-Jul-18 14:00N 49°19' W 123°08'4 8.8
2019-Jul-18 13:30N 49°19' W 123°15'5 9.0
2019-Jul-18 13:00N 49°18' W 123°22'5 9.0
2019-Jul-18 12:30N 49°18' W 123°28'4 8.8
2019-Jul-18 12:00N 49°18' W 123°35'4 8.6
2019-Jul-18 11:30N 49°19' W 123°42'4 8.8
2019-Jul-18 11:00N 49°20' W 123°48'4 8.4
2019-Jul-18 10:30N 49°22' W 123°54'4 8.6
2019-Jul-18 10:00N 49°23' W 124°01'5 9.1
2019-Jul-18 09:30N 49°23' W 124°07'4 8.7
2019-Jul-18 09:00N 49°24' W 124°14'4 8.8
2019-Jul-18 08:30N 49°26' W 124°21'5 9.1
2019-Jul-18 07:58N 49°28' W 124°27'4 9.1
2019-Jul-18 07:29N 49°31' W 124°32'4 8.7
2019-Jul-18 07:00N 49°34' W 124°36'5 9.1
2019-Jul-18 06:31N 49°37' W 124°41'4 8.6
2019-Jul-18 06:00N 49°41' W 124°46'4 8.6
2019-Jul-18 05:30N 49°44' W 124°50'4 8.4
2019-Jul-18 05:00N 49°47' W 124°54'4 8.8
2019-Jul-18 04:30N 49°50' W 124°59'510.6
2019-Jul-18 04:00N 49°54' W 125°04'4 8.5
2019-Jul-18 03:30N 49°57' W 125°09'5 9.5
2019-Jul-18 03:00N 50°01' W 125°13'510.6
2019-Jul-18 02:30N 50°06' W 125°17'510.9
2019-Jul-18 02:00N 50°10' W 125°22'612.0
2019-Jul-18 01:29N 50°16' W 125°24'1210.8
2019-Jul-18 00:20N 50°22' W 125°41'412.3
2019-Jul-17 23:59N 50°23' W 125°48'2612.4
2019-Jul-17 21:53N 50°30' W 126°27'511.9
2019-Jul-17 21:29N 50°30' W 126°34'611.7
2019-Jul-17 21:00N 50°32' W 126°43'611.5
2019-Jul-17 20:30N 50°34' W 126°52'510.2
2019-Jul-17 19:58N 50°36' W 126°59'2611.8
2019-Jul-17 17:46N 50°51' W 127°32'510.9
2019-Jul-17 17:17N 50°55' W 127°39'310.4
2019-Jul-17 17:00N 50°56' W 127°43'611.1
2019-Jul-17 16:30N 50°60' W 127°50'612.4
2019-Jul-17 16:00N 51°03' W 127°58'713.2
2019-Jul-17 15:31N 51°07' W 128°06'713.2
2019-Jul-17 15:00N 51°10' W 128°15'612.5
2019-Jul-17 14:31N 51°14' W 128°23'713.3
2019-Jul-17 14:01N 51°21' W 128°25'713.3
2019-Jul-17 13:31N 51°27' W 128°28'713.0
2019-Jul-17 13:01N 51°34' W 128°31'613.0
2019-Jul-17 12:30N 51°40' W 128°33'612.7
2019-Jul-17 12:00N 51°46' W 128°35'612.0
2019-Jul-17 11:31N 51°52' W 128°38'611.7
2019-Jul-17 11:00N 51°58' W 128°40'611.1
2019-Jul-17 10:31N 52°03' W 128°43'510.8
2019-Jul-17 10:00N 52°08' W 128°46'510.0
2019-Jul-17 09:31N 52°13' W 128°48'510.1
2019-Jul-17 09:01N 52°18' W 128°50'510.5
2019-Jul-17 08:31N 52°23' W 128°51'611.2
2019-Jul-17 08:01N 52°28' W 128°53'611.0
2019-Jul-17 07:27N 52°35' W 128°54'510.4
2019-Jul-17 07:00N 52°39' W 128°57'510.5
2019-Jul-17 06:30N 52°43' W 129°03'7010.8
2019-Jul-17 00:03N 53°45' W 129°54'211.0
2019-Jul-16 23:51N 53°47' W 129°56'411.5
2019-Jul-16 23:30N 53°50' W 130°01'511.1
2019-Jul-16 23:00N 53°54' W 130°07'510.1
2019-Jul-16 22:30N 53°58' W 130°13'510.6
2019-Jul-16 22:00N 54°03' W 130°15'510.8
2019-Jul-16 21:30N 54°07' W 130°22'611.5
2019-Jul-16 21:00N 54°12' W 130°21'5 9.6
2019-Jul-16 20:30N 54°17' W 130°22'2 4.4
2019-Jul-16 19:59N 54°19' W 130°19'0 0.0
2019-Jul-16 19:29N 54°19' W 130°19'0 0.0
2019-Jul-16 18:59N 54°19' W 130°19'0 0.0
2019-Jul-16 18:29N 54°19' W 130°19'0 0.0
2019-Jul-16 17:59N 54°19' W 130°19'0 0.0
2019-Jul-16 17:26N 54°19' W 130°19'0 0.0
2019-Jul-16 16:59N 54°19' W 130°19'0 0.0
2019-Jul-16 16:26N 54°19' W 130°19'0 0.0
2019-Jul-16 15:56N 54°19' W 130°19'0 0.0
2019-Jul-16 15:26N 54°19' W 130°19'0 0.0
2019-Jul-16 14:56N 54°19' W 130°19'0 0.0
2019-Jul-16 14:26N 54°19' W 130°19'0 0.0
2019-Jul-16 13:56N 54°19' W 130°19'0 0.0
2019-Jul-16 13:26N 54°19' W 130°19'0 0.0
2019-Jul-16 13:00N 54°19' W 130°19'0 1.0
2019-Jul-16 12:30N 54°19' W 130°20'3 6.1
2019-Jul-16 12:00N 54°16' W 130°22'3 6.1
2019-Jul-16 11:30N 54°13' W 130°23'4 8.0
2019-Jul-16 11:00N 54°13' W 130°29'5 9.5
2019-Jul-16 10:30N 54°14' W 130°37'510.7
2019-Jul-16 10:00N 54°17' W 130°45'611.2
2019-Jul-16 09:30N 54°19' W 130°54'611.6
2019-Jul-16 09:00N 54°22' W 131°03'612.4
2019-Jul-16 08:30N 54°27' W 131°09'612.9
2019-Jul-16 08:00N 54°33' W 131°14'612.2
2019-Jul-16 07:30N 54°39' W 131°14'811.2
2019-Jul-16 06:46N 54°47' W 131°10'310.9
2019-Jul-16 06:29N 54°50' W 131°08'21 1.1
2019-Jul-15 11:57N 55°11' W 131°11'  
2019-Jul-12 06:26N 58°18' W 136°17'613.9
2019-Jul-12 06:00N 58°19' W 136°06'713.9
2019-Jul-12 05:30N 58°19' W 135°53'713.7
2019-Jul-12 05:00N 58°16' W 135°40'713.5
2019-Jul-12 04:30N 58°13' W 135°29'  
Track history (hours):
 
Tides and Currents Weather Stations Pressure Air Temp Water Temp Dewpoint Dewpoint Depression Visibility Wind Speed Wind Dir Waves Ship Positions

Seabourn Legend

Operator: Cunard Seabourn

Last reported at 2019-Jul-22 03:44 UTC. Time now 2019-Jul-22 06:23 UTC.
Position N 55°10' W 131°11'.

Length 135 m; draft 5.6 m.

Type: Passenger vessel. MMSI: 311085000.

Date/timePositionNaut miles runAvg speedWind from/ knotsBaromVisibWave heightAir tempDewpointWater temp
2019-Jul-22 03:44N 55°10' W 131°11'16 0.9
2019-Jul-21 09:12N 54°55' W 131°04'1 5.5
2019-Jul-21 09:00N 54°55' W 131°06'2510.0
2019-Jul-21 06:28N 55°17' W 131°30'25 1.9
2019-Jul-20 17:13N 54°55' W 131°07'210.1
2019-Jul-20 16:59N 54°53' W 131°07'5 9.8
2019-Jul-20 16:27N 54°48' W 131°09'6 9.2
2019-Jul-20 15:50N 54°43' W 131°13'410.5
2019-Jul-20 15:30N 54°40' W 131°15'611.6
2019-Jul-20 14:58N 54°33' W 131°15'612.0
2019-Jul-20 14:30N 54°28' W 131°13'612.8
2019-Jul-20 14:00N 54°22' W 131°10'713.2
2019-Jul-20 13:30N 54°15' W 131°08'713.0
2019-Jul-20 13:00N 54°10' W 131°03'713.2
2019-Jul-20 12:30N 54°03' W 131°01'713.7
2019-Jul-20 12:00N 53°56' W 131°01'714.0
2019-Jul-20 11:30N 53°49' W 131°01'713.9
2019-Jul-20 11:01N 53°42' W 131°01'713.8
2019-Jul-20 10:30N 53°35' W 131°00'713.9
2019-Jul-20 10:00N 53°29' W 130°60'1113.6
2019-Jul-20 09:13N 53°18' W 130°53'8613.7
2019-Jul-20 02:59N 52°08' W 129°34'712.4
2019-Jul-20 02:27N 52°03' W 129°27'613.0
2019-Jul-20 02:00N 51°59' W 129°20'612.7
2019-Jul-20 01:30N 51°54' W 129°13'612.2
2019-Jul-20 01:00N 51°50' W 129°06'612.1
2019-Jul-20 00:30N 51°45' W 128°59'612.0
2019-Jul-20 00:00N 51°40' W 128°53'612.1
2019-Jul-19 23:30N 51°35' W 128°52'612.3
2019-Jul-19 23:00N 51°28' W 128°51'612.1
2019-Jul-19 22:31N 51°24' W 128°44'612.6
2019-Jul-19 22:00N 51°21' W 128°36'612.7
2019-Jul-19 21:30N 51°17' W 128°28'612.3
2019-Jul-19 21:00N 51°13' W 128°20'612.2
2019-Jul-19 20:31N 51°10' W 128°12'612.0
2019-Jul-19 20:00N 51°06' W 128°04'612.1
2019-Jul-19 19:30N 51°03' W 127°56'612.6
2019-Jul-19 19:00N 50°60' W 127°48'5 9.6
2019-Jul-19 18:31N 50°56' W 127°42'7 9.0
2019-Jul-19 17:47N 50°52' W 127°34'2 8.7
2019-Jul-19 17:30N 50°51' W 127°31'15 9.2
2019-Jul-19 15:53N 50°45' W 127°09'3 9.2
2019-Jul-19 15:31N 50°44' W 127°04'5 9.1
2019-Jul-19 15:01N 50°42' W 126°57'612.3
2019-Jul-19 14:30N 50°39' W 126°49'4212.1
2019-Jul-19 11:01N 50°23' W 125°48'1312.3
2019-Jul-19 09:57N 50°20' W 125°27'511.9
2019-Jul-19 09:30N 50°16' W 125°24'713.9
2019-Jul-19 09:00N 50°09' W 125°21'5 9.8
2019-Jul-19 08:30N 50°05' W 125°17'510.1
2019-Jul-19 08:00N 50°01' W 125°13'5 9.9
2019-Jul-19 07:30N 49°57' W 125°08'510.4
2019-Jul-19 07:00N 49°53' W 125°02'611.7
2019-Jul-19 06:30N 49°49' W 124°56'612.9
2019-Jul-19 06:00N 49°45' W 124°49'713.2
2019-Jul-19 05:30N 49°40' W 124°41'713.1
2019-Jul-19 04:59N 49°35' W 124°34'612.7
2019-Jul-19 04:30N 49°31' W 124°27'612.9
2019-Jul-19 04:00N 49°26' W 124°20'612.5
2019-Jul-19 03:29N 49°24' W 124°11'612.6
2019-Jul-19 03:00N 49°23' W 124°02'612.1
2019-Jul-19 02:30N 49°22' W 123°53'612.1
2019-Jul-19 02:00N 49°21' W 123°44'612.5
2019-Jul-19 01:30N 49°20' W 123°34'713.2
2019-Jul-19 01:00N 49°19' W 123°24'612.8
2019-Jul-19 00:30N 49°19' W 123°14'510.6
2019-Jul-19 00:01N 49°18' W 123°06'1 1.2
2019-Jul-18 23:23N 49°17' W 123°06'0 0.0
2019-Jul-18 22:59N 49°17' W 123°06'0 0.0
2019-Jul-18 22:29N 49°17' W 123°06'0 0.0
2019-Jul-18 21:59N 49°17' W 123°06'0 0.0
2019-Jul-18 21:29N 49°17' W 123°06'0 0.0
2019-Jul-18 20:59N 49°17' W 123°06'0 0.0
2019-Jul-18 20:29N 49°17' W 123°06'0 0.0
2019-Jul-18 19:59N 49°17' W 123°06'0 0.0
2019-Jul-18 19:29N 49°17' W 123°06'0 0.0
2019-Jul-18 18:59N 49°17' W 123°06'0 0.0
2019-Jul-18 18:29N 49°17' W 123°06'0 0.0
2019-Jul-18 17:59N 49°17' W 123°06'0 0.0
2019-Jul-18 17:29N 49°17' W 123°06'0 0.0
2019-Jul-18 16:59N 49°17' W 123°06'0 0.0
2019-Jul-18 16:29N 49°17' W 123°06'0 0.0
2019-Jul-18 15:59N 49°17' W 123°06'0 0.0
2019-Jul-18 15:29N 49°17' W 123°06'0 0.0
2019-Jul-18 15:00N 49°17' W 123°06'0 0.2
2019-Jul-18 14:30N 49°17' W 123°06'2 3.2
2019-Jul-18 14:00N 49°19' W 123°08'4 8.8
2019-Jul-18 13:30N 49°19' W 123°15'5 9.0
2019-Jul-18 13:00N 49°18' W 123°22'5 9.0
2019-Jul-18 12:30N 49°18' W 123°28'4 8.8
2019-Jul-18 12:00N 49°18' W 123°35'4 8.6
2019-Jul-18 11:30N 49°19' W 123°42'4 8.8
2019-Jul-18 11:00N 49°20' W 123°48'4 8.4
2019-Jul-18 10:30N 49°22' W 123°54'4 8.6
2019-Jul-18 10:00N 49°23' W 124°01'5 9.1
2019-Jul-18 09:30N 49°23' W 124°07'4 8.7
2019-Jul-18 09:00N 49°24' W 124°14'4 8.8
2019-Jul-18 08:30N 49°26' W 124°21'5 9.1
2019-Jul-18 07:58N 49°28' W 124°27'4 9.1
2019-Jul-18 07:29N 49°31' W 124°32'4 8.7
2019-Jul-18 07:00N 49°34' W 124°36'5 9.1
2019-Jul-18 06:31N 49°37' W 124°41'4 8.6
2019-Jul-18 06:00N 49°41' W 124°46'4 8.6
2019-Jul-18 05:30N 49°44' W 124°50'4 8.4
2019-Jul-18 05:00N 49°47' W 124°54'4 8.8
2019-Jul-18 04:30N 49°50' W 124°59'510.6
2019-Jul-18 04:00N 49°54' W 125°04'4 8.5
2019-Jul-18 03:30N 49°57' W 125°09'5 9.5
2019-Jul-18 03:00N 50°01' W 125°13'510.6
2019-Jul-18 02:30N 50°06' W 125°17'510.9
2019-Jul-18 02:00N 50°10' W 125°22'612.0
2019-Jul-18 01:29N 50°16' W 125°24'1210.8
2019-Jul-18 00:20N 50°22' W 125°41'412.3
2019-Jul-17 23:59N 50°23' W 125°48'2612.4
2019-Jul-17 21:53N 50°30' W 126°27'511.9
2019-Jul-17 21:29N 50°30' W 126°34'611.7
2019-Jul-17 21:00N 50°32' W 126°43'611.5
2019-Jul-17 20:30N 50°34' W 126°52'510.2
2019-Jul-17 19:58N 50°36' W 126°59'2611.8
2019-Jul-17 17:46N 50°51' W 127°32'510.9
2019-Jul-17 17:17N 50°55' W 127°39'310.4
2019-Jul-17 17:00N 50°56' W 127°43'611.1
2019-Jul-17 16:30N 50°60' W 127°50'612.4
2019-Jul-17 16:00N 51°03' W 127°58'713.2
2019-Jul-17 15:31N 51°07' W 128°06'713.2
2019-Jul-17 15:00N 51°10' W 128°15'612.5
2019-Jul-17 14:31N 51°14' W 128°23'713.3
2019-Jul-17 14:01N 51°21' W 128°25'713.3
2019-Jul-17 13:31N 51°27' W 128°28'713.0
2019-Jul-17 13:01N 51°34' W 128°31'613.0
2019-Jul-17 12:30N 51°40' W 128°33'612.7
2019-Jul-17 12:00N 51°46' W 128°35'612.0
2019-Jul-17 11:31N 51°52' W 128°38'611.7
2019-Jul-17 11:00N 51°58' W 128°40'611.1
2019-Jul-17 10:31N 52°03' W 128°43'510.8
2019-Jul-17 10:00N 52°08' W 128°46'510.0
2019-Jul-17 09:31N 52°13' W 128°48'510.1
2019-Jul-17 09:01N 52°18' W 128°50'510.5
2019-Jul-17 08:31N 52°23' W 128°51'611.2
2019-Jul-17 08:01N 52°28' W 128°53'611.0
2019-Jul-17 07:27N 52°35' W 128°54'510.4
2019-Jul-17 07:00N 52°39' W 128°57'510.5
2019-Jul-17 06:30N 52°43' W 129°03'7010.8
2019-Jul-17 00:03N 53°45' W 129°54'211.0
2019-Jul-16 23:51N 53°47' W 129°56'411.5
2019-Jul-16 23:30N 53°50' W 130°01'511.1
2019-Jul-16 23:00N 53°54' W 130°07'510.1
2019-Jul-16 22:30N 53°58' W 130°13'510.6
2019-Jul-16 22:00N 54°03' W 130°15'510.8
2019-Jul-16 21:30N 54°07' W 130°22'611.5
2019-Jul-16 21:00N 54°12' W 130°21'5 9.6
2019-Jul-16 20:30N 54°17' W 130°22'2 4.4
2019-Jul-16 19:59N 54°19' W 130°19'0 0.0
2019-Jul-16 19:29N 54°19' W 130°19'0 0.0
2019-Jul-16 18:59N 54°19' W 130°19'0 0.0
2019-Jul-16 18:29N 54°19' W 130°19'0 0.0
2019-Jul-16 17:59N 54°19' W 130°19'0 0.0
2019-Jul-16 17:26N 54°19' W 130°19'0 0.0
2019-Jul-16 16:59N 54°19' W 130°19'0 0.0
2019-Jul-16 16:26N 54°19' W 130°19'0 0.0
2019-Jul-16 15:56N 54°19' W 130°19'0 0.0
2019-Jul-16 15:26N 54°19' W 130°19'0 0.0
2019-Jul-16 14:56N 54°19' W 130°19'0 0.0
2019-Jul-16 14:26N 54°19' W 130°19'0 0.0
2019-Jul-16 13:56N 54°19' W 130°19'0 0.0
2019-Jul-16 13:26N 54°19' W 130°19'0 0.0
2019-Jul-16 13:00N 54°19' W 130°19'0 1.0
2019-Jul-16 12:30N 54°19' W 130°20'3 6.1
2019-Jul-16 12:00N 54°16' W 130°22'3 6.1
2019-Jul-16 11:30N 54°13' W 130°23'4 8.0
2019-Jul-16 11:00N 54°13' W 130°29'5 9.5
2019-Jul-16 10:30N 54°14' W 130°37'510.7
2019-Jul-16 10:00N 54°17' W 130°45'611.2
2019-Jul-16 09:30N 54°19' W 130°54'611.6
2019-Jul-16 09:00N 54°22' W 131°03'612.4
2019-Jul-16 08:30N 54°27' W 131°09'612.9
2019-Jul-16 08:00N 54°33' W 131°14'612.2
2019-Jul-16 07:30N 54°39' W 131°14'811.2
2019-Jul-16 06:46N 54°47' W 131°10'310.9
2019-Jul-16 06:29N 54°50' W 131°08'21 1.1
2019-Jul-15 11:57N 55°11' W 131°11'  
2019-Jul-12 06:26N 58°18' W 136°17'613.9
2019-Jul-12 06:00N 58°19' W 136°06'713.9
2019-Jul-12 05:30N 58°19' W 135°53'713.7
2019-Jul-12 05:00N 58°16' W 135°40'713.5
2019-Jul-12 04:30N 58°13' W 135°29'  

Dump ship's entire track history